Rising Sun, Montana
Current Conditions -  °F | °C
As of 8:55 PM on Sunday 23 Nov 2014 (Local Time) from KGPI Reporting Station
Overcast Overcast  
Wind Chill: 26°   Ceiling: 5000
Heat Index: 34°   Visibility: 10mi
Dew Point: 32°   Wind: 10mph
Humidity: 92%   Direction: 150°SSE
Pressure: 29.91"   Gusts: NA
Location:  48.7064°N, 113.591°W
Report Text: KGPI 240355Z 15009KT 10SM FEW014 BKN050 OVC065 01/00 A2991 RMK AO2 RAE17 SLP154 P0000 T00110000
Loading
Personal Weather Stations






























Interactive Weather Map New forecast layout! Learn more

10-Day Weather Forecast

Advertisements
Track Severe Weather on mobile